Time,TemperatureF,DewpointF,PressureIn,WindDirection,WindDirectionDegrees,WindSpeedMPH,WindSpeedGustMPH,Humidity,HourlyPrecipIn,Conditions,Clouds,dailyrainin,SoftwareType,DateUTC
2013-10-12 00:02:00,49.0,47.0,30.02,SSE,152,0.0,1.0,94,-99.99,,,-99.99,,2013-10-12 07:02:00,
2013-10-12 00:12:00,49.0,47.0,30.02,SSE,152,0.0,1.0,94,-99.99,,,-99.99,,2013-10-12 07:12:00,
2013-10-12 00:21:00,49.0,47.0,30.02,East,92,0.0,0.0,94,-99.99,,,-99.99,,2013-10-12 07:21:00,
2013-10-12 00:52:00,49.0,47.0,30.01,East,92,0.0,0.0,94,-99.99,,,-99.99,,2013-10-12 07:52:00,
2013-10-12 01:02:00,49.0,47.0,30.01,East,92,0.0,0.0,94,-99.99,,,-99.99,,2013-10-12 08:02:00,
2013-10-12 01:52:00,47.0,46.0,30.00,East,92,0.0,0.0,95,-99.99,,,-99.99,,2013-10-12 08:52:00,
2013-10-12 02:21:00,47.0,46.0,30.01,East,92,0.0,0.0,95,-99.99,,,-99.99,,2013-10-12 09:21:00,
2013-10-12 02:33:00,47.0,46.0,30.01,East,92,0.0,0.0,95,-99.99,,,-99.99,,2013-10-12 09:33:00,
2013-10-12 02:43:00,47.0,46.0,30.01,East,92,0.0,0.0,95,-99.99,,,-99.99,,2013-10-12 09:43:00,
2013-10-12 02:53:00,47.0,46.0,30.01,East,92,0.0,0.0,95,-99.99,,,-99.99,,2013-10-12 09:53:00,
2013-10-12 03:23:00,47.0,46.0,30.00,East,92,0.0,0.0,96,-99.99,,,-99.99,,2013-10-12 10:23:00,
2013-10-12 03:52:00,47.0,46.0,30.00,East,92,0.0,1.0,96,-99.99,,,-99.99,,2013-10-12 10:52:00,
2013-10-12 04:02:00,47.0,46.0,30.00,East,92,0.0,1.0,96,-99.99,,,-99.99,,2013-10-12 11:02:00,
2013-10-12 04:22:00,46.0,45.0,30.00,East,92,0.0,1.0,96,-99.99,,,-99.99,,2013-10-12 11:22:00,
2013-10-12 04:52:00,47.0,46.0,30.01,East,92,0.0,0.0,97,-99.99,,,-99.99,,2013-10-12 11:52:00,
2013-10-12 05:01:00,47.0,46.0,30.01,East,92,0.0,0.0,97,-99.99,,,-99.99,,2013-10-12 12:01:00,
2013-10-12 05:11:00,47.0,46.0,30.01,East,92,0.0,0.0,97,-99.99,,,-99.99,,2013-10-12 12:11:00,
2013-10-12 05:52:00,47.0,46.0,30.00,SSE,168,0.0,0.0,97,-99.99,,,-99.99,,2013-10-12 12:52:00,
2013-10-12 06:11:00,47.0,46.0,30.00,South,169,0.0,0.0,97,-99.99,,,-99.99,,2013-10-12 13:11:00,
2013-10-12 06:21:00,48.0,47.0,29.99,South,169,0.0,0.0,97,-99.99,,,-99.99,,2013-10-12 13:21:00,
2013-10-12 06:52:00,48.0,47.0,29.99,ESE,121,0.0,3.0,97,-99.99,,,-99.99,,2013-10-12 13:52:00,
2013-10-12 07:21:00,47.0,46.0,29.99,NE,49,2.0,2.0,98,-99.99,,,-99.99,,2013-10-12 14:21:00,
2013-10-12 07:52:00,47.0,46.0,30.01,NE,48,0.0,0.0,98,-99.99,,,-99.99,,2013-10-12 14:52:00,
2013-10-12 08:22:00,47.0,46.0,30.01,NE,48,0.0,0.0,98,-99.99,,,-99.99,,2013-10-12 15:22:00,
2013-10-12 08:53:00,47.0,46.0,30.01,NE,48,0.0,1.0,98,-99.99,,,-99.99,,2013-10-12 15:53:00,
2013-10-12 09:13:00,47.0,46.0,30.01,NE,48,0.0,1.0,98,-99.99,,,-99.99,,2013-10-12 16:13:00,
2013-10-12 09:23:00,47.0,46.0,30.01,NE,48,0.0,1.0,98,-99.99,,,-99.99,,2013-10-12 16:23:00,
2013-10-12 09:33:00,47.0,46.0,30.01,NE,48,0.0,1.0,98,-99.99,,,-99.99,,2013-10-12 16:33:00,
2013-10-12 09:43:00,47.0,46.0,30.01,NE,48,0.0,1.0,98,-99.99,,,-99.99,,2013-10-12 16:43:00,
2013-10-12 10:53:00,51.0,51.0,30.01,North,0,1.0,3.0,99,-99.99,,,-99.99,,2013-10-12 17:53:00,
2013-10-12 11:21:00,53.0,52.0,30.01,WNW,299,0.0,6.0,97,-99.99,,,-99.99,,2013-10-12 18:21:00,
2013-10-12 11:52:00,55.0,53.0,30.00,WNW,292,1.0,6.0,94,-99.99,,,-99.99,,2013-10-12 18:52:00,
2013-10-12 12:11:00,58.0,52.0,29.99,NW,323,1.0,5.0,81,-99.99,,,-99.99,,2013-10-12 19:11:00,
2013-10-12 12:22:00,58.0,52.0,29.99,NW,323,1.0,5.0,81,-99.99,,,-99.99,,2013-10-12 19:22:00,
2013-10-12 12:52:00,62.0,51.0,29.98,South,181,1.0,7.0,68,-99.99,,,-99.99,,2013-10-12 19:52:00,
2013-10-12 13:22:00,65.0,53.0,29.97,SW,222,4.0,12.0,65,-99.99,,,-99.99,,2013-10-12 20:22:00,
2013-10-12 13:52:00,63.0,52.0,29.96,SW,215,11.0,14.0,67,-99.99,,,-99.99,,2013-10-12 20:52:00,
2013-10-12 14:11:00,61.0,51.0,29.96,SW,220,8.0,11.0,70,-99.99,,,-99.99,,2013-10-12 21:11:00,
2013-10-12 14:22:00,61.0,51.0,29.96,SW,220,8.0,11.0,70,-99.99,,,-99.99,,2013-10-12 21:22:00,
2013-10-12 14:43:00,60.0,51.0,29.96,SW,219,11.0,13.0,73,-99.99,,,-99.99,,2013-10-12 21:43:00,
2013-10-12 14:54:00,60.0,51.0,29.96,SW,219,11.0,13.0,73,-99.99,,,-99.99,,2013-10-12 21:54:00,
2013-10-12 15:24:00,58.0,50.0,29.95,West,271,6.0,12.0,76,-99.99,,,-99.99,,2013-10-12 22:24:00,
2013-10-12 15:54:00,58.0,50.0,29.95,SW,226,8.0,10.0,75,-99.99,,,-99.99,,2013-10-12 22:54:00,
2013-10-12 16:22:00,58.0,50.0,29.95,SW,217,7.0,12.0,74,-99.99,,,-99.99,,2013-10-12 23:22:00,
2013-10-12 16:42:00,58.0,51.0,29.95,SW,226,7.0,10.0,77,-99.99,,,-99.99,,2013-10-12 23:42:00,
2013-10-12 16:52:00,58.0,51.0,29.95,SW,226,7.0,10.0,77,-99.99,,,-99.99,,2013-10-12 23:52:00,
2013-10-12 17:11:00,57.0,51.0,29.95,SSW,200,3.0,8.0,80,-99.99,,,-99.99,,2013-10-13 00:11:00,
2013-10-12 17:21:00,56.0,50.0,29.95,SW,234,7.0,8.0,80,-99.99,,,-99.99,,2013-10-13 00:21:00,
2013-10-12 17:42:00,57.0,51.0,29.95,SW,224,6.0,7.0,81,-99.99,,,-99.99,,2013-10-13 00:42:00,
2013-10-12 17:52:00,57.0,51.0,29.95,SW,234,3.0,10.0,80,-99.99,,,-99.99,,2013-10-13 00:52:00,
2013-10-12 18:21:00,57.0,51.0,29.95,SW,222,7.0,8.0,80,-99.99,,,-99.99,,2013-10-13 01:21:00,
2013-10-12 18:42:00,56.0,50.0,29.95,SW,219,4.0,7.0,81,-99.99,,,-99.99,,2013-10-13 01:42:00,
2013-10-12 18:52:00,56.0,50.0,29.95,SW,219,4.0,7.0,81,-99.99,,,-99.99,,2013-10-13 01:52:00,
2013-10-12 19:02:00,56.0,50.0,29.95,SW,219,4.0,7.0,81,-99.99,,,-99.99,,2013-10-13 02:02:00,
2013-10-12 19:22:00,53.0,49.0,29.95,SW,229,5.0,8.0,87,-99.99,,,-99.99,,2013-10-13 02:22:00,
2013-10-12 19:42:00,53.0,50.0,29.96,SW,219,1.0,6.0,88,-99.99,,,-99.99,,2013-10-13 02:42:00,
2013-10-12 19:52:00,53.0,50.0,29.96,South,175,1.0,6.0,89,-99.99,,,-99.99,,2013-10-13 02:52:00,
2013-10-12 20:22:00,52.0,49.0,29.96,South,184,0.0,8.0,89,-99.99,,,-99.99,,2013-10-13 03:22:00,
2013-10-12 20:34:00,52.0,49.0,29.96,South,184,0.0,8.0,89,-99.99,,,-99.99,,2013-10-13 03:34:00,
2013-10-12 20:54:00,51.0,48.0,29.96,ESE,121,2.0,3.0,89,-99.99,,,-99.99,,2013-10-13 03:54:00,
2013-10-12 21:02:00,-999.0,-99.9,29.97,ESE,107,1.0,3.0,-999,-99.99,,,-99.99,,2013-10-13 04:02:00,
2013-10-12 21:23:00,51.0,48.0,29.97,ESE,110,0.0,2.0,89,-99.99,,,-99.99,,2013-10-13 04:23:00,
2013-10-12 21:54:00,51.0,48.0,29.97,East,86,2.0,7.0,89,-99.99,,,-99.99,,2013-10-13 04:54:00,
2013-10-12 22:03:00,51.0,48.0,29.97,East,86,2.0,7.0,89,-99.99,,,-99.99,,2013-10-13 05:03:00,
2013-10-12 22:12:00,51.0,48.0,29.97,East,86,2.0,7.0,89,-99.99,,,-99.99,,2013-10-13 05:12:00,
2013-10-12 22:43:00,52.0,49.0,29.97,ESE,112,0.0,5.0,91,-99.99,,,-99.99,,2013-10-13 05:43:00,
2013-10-12 22:52:00,52.0,49.0,29.97,East,96,3.0,3.0,91,-99.99,,,-99.99,,2013-10-13 05:52:00,
2013-10-12 23:12:00,51.0,49.0,29.97,ESE,104,0.0,3.0,92,-99.99,,,-99.99,,2013-10-13 06:12:00,
2013-10-12 23:21:00,51.0,49.0,29.97,ESE,104,0.0,3.0,92,-99.99,,,-99.99,,2013-10-13 06:21:00,
2013-10-12 23:52:00,51.0,49.0,29.97,ESE,110,0.0,5.0,92,-99.99,,,-99.99,,2013-10-13 06:52:00,